sensor_id;sensor_type;location;lat;lon;timestamp;P1;durP1;ratioP1;P2;durP2;ratioP2
52866;SDS011;38739;53.324;6.862;2022-12-10T00:01:07;92.93;;;31.75;;
52866;SDS011;38739;53.324;6.862;2022-12-10T00:03:35;83.45;;;30.33;;
52866;SDS011;38739;53.324;6.862;2022-12-10T00:06:01;77.68;;;29.02;;
52866;SDS011;38739;53.324;6.862;2022-12-10T00:08:28;79.82;;;29.67;;
52866;SDS011;38739;53.324;6.862;2022-12-10T00:10:54;72.30;;;28.17;;
52866;SDS011;38739;53.324;6.862;2022-12-10T00:13:19;77.30;;;30.08;;
52866;SDS011;38739;53.324;6.862;2022-12-10T00:15:45;68.30;;;28.27;;
52866;SDS011;38739;53.324;6.862;2022-12-10T00:18:17;70.45;;;28.42;;
52866;SDS011;38739;53.324;6.862;2022-12-10T00:20:43;65.95;;;27.75;;
52866;SDS011;38739;53.324;6.862;2022-12-10T00:23:08;72.93;;;28.95;;
52866;SDS011;38739;53.324;6.862;2022-12-10T00:25:34;72.40;;;28.35;;
52866;SDS011;38739;53.324;6.862;2022-12-10T00:28:00;75.43;;;29.67;;
52866;SDS011;38739;53.324;6.862;2022-12-10T00:30:25;72.57;;;30.67;;
52866;SDS011;38739;53.324;6.862;2022-12-10T00:32:51;75.53;;;30.58;;
52866;SDS011;38739;53.324;6.862;2022-12-10T00:35:17;77.05;;;31.85;;
52866;SDS011;38739;53.324;6.862;2022-12-10T00:37:42;71.28;;;31.48;;
52866;SDS011;38739;53.324;6.862;2022-12-10T00:40:08;79.30;;;32.30;;
52866;SDS011;38739;53.324;6.862;2022-12-10T00:42:35;79.97;;;32.03;;
52866;SDS011;38739;53.324;6.862;2022-12-10T00:45:01;86.32;;;32.03;;
52866;SDS011;38739;53.324;6.862;2022-12-10T00:47:28;92.20;;;34.03;;
52866;SDS011;38739;53.324;6.862;2022-12-10T00:49:54;88.45;;;32.75;;
52866;SDS011;38739;53.324;6.862;2022-12-10T00:52:19;86.80;;;31.98;;
52866;SDS011;38739;53.324;6.862;2022-12-10T00:54:45;81.72;;;32.25;;
52866;SDS011;38739;53.324;6.862;2022-12-10T00:57:11;75.82;;;30.80;;
52866;SDS011;38739;53.324;6.862;2022-12-10T00:59:37;80.75;;;32.60;;
52866;SDS011;38739;53.324;6.862;2022-12-10T01:02:02;83.05;;;32.00;;
52866;SDS011;38739;53.324;6.862;2022-12-10T01:04:28;83.88;;;31.10;;
52866;SDS011;38739;53.324;6.862;2022-12-10T01:06:54;85.05;;;31.85;;
52866;SDS011;38739;53.324;6.862;2022-12-10T01:09:24;83.07;;;32.50;;
52866;SDS011;38739;53.324;6.862;2022-12-10T01:11:50;76.18;;;30.90;;
52866;SDS011;38739;53.324;6.862;2022-12-10T01:14:23;79.05;;;31.35;;
52866;SDS011;38739;53.324;6.862;2022-12-10T01:16:53;84.00;;;31.67;;
52866;SDS011;38739;53.324;6.862;2022-12-10T01:19:20;75.05;;;30.23;;
52866;SDS011;38739;53.324;6.862;2022-12-10T01:21:49;74.03;;;30.33;;
52866;SDS011;38739;53.324;6.862;2022-12-10T01:24:15;77.45;;;31.05;;
52866;SDS011;38739;53.324;6.862;2022-12-10T01:26:41;76.05;;;31.73;;
52866;SDS011;38739;53.324;6.862;2022-12-10T01:29:07;87.68;;;30.58;;
52866;SDS011;38739;53.324;6.862;2022-12-10T01:31:34;77.20;;;31.23;;
52866;SDS011;38739;53.324;6.862;2022-12-10T01:34:01;80.80;;;31.02;;
52866;SDS011;38739;53.324;6.862;2022-12-10T01:36:29;81.55;;;31.48;;
52866;SDS011;38739;53.324;6.862;2022-12-10T01:39:01;78.93;;;31.02;;
52866;SDS011;38739;53.324;6.862;2022-12-10T01:41:31;81.32;;;32.10;;
52866;SDS011;38739;53.324;6.862;2022-12-10T01:46:44;86.75;;;32.72;;
52866;SDS011;38739;53.324;6.862;2022-12-10T01:49:16;89.78;;;33.08;;
52866;SDS011;38739;53.324;6.862;2022-12-10T01:51:45;79.10;;;30.90;;
52866;SDS011;38739;53.324;6.862;2022-12-10T01:54:14;81.47;;;32.15;;
52866;SDS011;38739;53.324;6.862;2022-12-10T01:56:43;81.40;;;32.00;;
52866;SDS011;38739;53.324;6.862;2022-12-10T01:59:10;80.07;;;31.85;;
52866;SDS011;38739;53.324;6.862;2022-12-10T02:07:02;79.73;;;31.60;;
52866;SDS011;38739;53.324;6.862;2022-12-10T02:09:35;80.82;;;31.40;;
52866;SDS011;38739;53.324;6.862;2022-12-10T02:15:14;80.75;;;31.65;;
52866;SDS011;38739;53.324;6.862;2022-12-10T02:17:48;89.80;;;33.65;;
52866;SDS011;38739;53.324;6.862;2022-12-10T02:20:40;88.18;;;34.20;;
52866;SDS011;38739;53.324;6.862;2022-12-10T02:23:15;83.65;;;31.58;;
52866;SDS011;38739;53.324;6.862;2022-12-10T02:25:59;85.28;;;32.38;;
52866;SDS011;38739;53.324;6.862;2022-12-10T02:28:47;82.37;;;32.13;;
52866;SDS011;38739;53.324;6.862;2022-12-10T02:31:29;88.63;;;32.80;;
52866;SDS011;38739;53.324;6.862;2022-12-10T02:33:57;85.47;;;32.28;;
52866;SDS011;38739;53.324;6.862;2022-12-10T02:36:25;84.70;;;31.98;;
52866;SDS011;38739;53.324;6.862;2022-12-10T02:38:54;86.03;;;33.05;;
52866;SDS011;38739;53.324;6.862;2022-12-10T02:41:30;87.32;;;32.15;;
52866;SDS011;38739;53.324;6.862;2022-12-10T02:44:01;88.68;;;33.63;;
52866;SDS011;38739;53.324;6.862;2022-12-10T02:46:30;84.85;;;32.40;;
52866;SDS011;38739;53.324;6.862;2022-12-10T02:48:58;89.78;;;33.28;;
52866;SDS011;38739;53.324;6.862;2022-12-10T02:51:26;93.97;;;33.70;;
52866;SDS011;38739;53.324;6.862;2022-12-10T02:54:02;85.32;;;33.05;;
52866;SDS011;38739;53.324;6.862;2022-12-10T02:56:33;85.75;;;32.72;;
52866;SDS011;38739;53.324;6.862;2022-12-10T03:01:59;83.97;;;31.93;;
52866;SDS011;38739;53.324;6.862;2022-12-10T03:07:10;94.55;;;34.17;;
52866;SDS011;38739;53.324;6.862;2022-12-10T03:10:02;93.55;;;34.97;;
52866;SDS011;38739;53.324;6.862;2022-12-10T03:12:38;92.10;;;34.95;;
52866;SDS011;38739;53.324;6.862;2022-12-10T03:15:12;96.43;;;35.25;;
52866;SDS011;38739;53.324;6.862;2022-12-10T03:17:41;95.38;;;35.25;;
52866;SDS011;38739;53.324;6.862;2022-12-10T03:20:10;94.50;;;34.92;;
52866;SDS011;38739;53.324;6.862;2022-12-10T03:22:39;93.28;;;34.83;;
52866;SDS011;38739;53.324;6.862;2022-12-10T03:25:08;91.93;;;35.63;;
52866;SDS011;38739;53.324;6.862;2022-12-10T03:27:37;83.93;;;35.47;;
52866;SDS011;38739;53.324;6.862;2022-12-10T03:30:06;93.03;;;34.58;;
52866;SDS011;38739;53.324;6.862;2022-12-10T03:32:32;90.10;;;35.08;;
52866;SDS011;38739;53.324;6.862;2022-12-10T03:34:59;90.25;;;34.38;;
52866;SDS011;38739;53.324;6.862;2022-12-10T03:37:26;92.60;;;36.05;;
52866;SDS011;38739;53.324;6.862;2022-12-10T03:39:53;94.05;;;34.65;;
52866;SDS011;38739;53.324;6.862;2022-12-10T03:42:21;91.45;;;36.30;;
52866;SDS011;38739;53.324;6.862;2022-12-10T03:44:49;90.60;;;34.83;;
52866;SDS011;38739;53.324;6.862;2022-12-10T03:47:16;93.65;;;35.72;;
52866;SDS011;38739;53.324;6.862;2022-12-10T03:49:43;90.80;;;35.58;;
52866;SDS011;38739;53.324;6.862;2022-12-10T03:52:09;91.32;;;34.97;;
52866;SDS011;38739;53.324;6.862;2022-12-10T03:54:35;98.63;;;36.38;;
52866;SDS011;38739;53.324;6.862;2022-12-10T03:57:01;96.22;;;35.28;;
52866;SDS011;38739;53.324;6.862;2022-12-10T03:59:26;91.80;;;34.88;;
52866;SDS011;38739;53.324;6.862;2022-12-10T04:01:52;96.50;;;35.15;;
52866;SDS011;38739;53.324;6.862;2022-12-10T04:04:18;92.78;;;34.53;;
52866;SDS011;38739;53.324;6.862;2022-12-10T04:06:44;87.70;;;35.08;;
52866;SDS011;38739;53.324;6.862;2022-12-10T04:09:10;91.78;;;35.40;;
52866;SDS011;38739;53.324;6.862;2022-12-10T04:11:37;89.78;;;34.97;;
52866;SDS011;38739;53.324;6.862;2022-12-10T04:14:02;98.05;;;35.78;;
52866;SDS011;38739;53.324;6.862;2022-12-10T04:16:47;93.68;;;35.25;;
52866;SDS011;38739;53.324;6.862;2022-12-10T04:19:13;94.68;;;35.45;;
52866;SDS011;38739;53.324;6.862;2022-12-10T04:21:41;95.22;;;35.20;;
52866;SDS011;38739;53.324;6.862;2022-12-10T04:24:28;88.57;;;34.10;;
52866;SDS011;38739;53.324;6.862;2022-12-10T04:29:48;97.70;;;35.63;;
52866;SDS011;38739;53.324;6.862;2022-12-10T04:32:15;95.05;;;35.45;;
52866;SDS011;38739;53.324;6.862;2022-12-10T04:34:40;93.00;;;35.95;;
52866;SDS011;38739;53.324;6.862;2022-12-10T04:37:06;92.93;;;35.45;;
52866;SDS011;38739;53.324;6.862;2022-12-10T04:39:32;96.80;;;35.63;;
52866;SDS011;38739;53.324;6.862;2022-12-10T04:41:59;95.65;;;37.10;;
52866;SDS011;38739;53.324;6.862;2022-12-10T04:44:25;108.13;;;37.58;;
52866;SDS011;38739;53.324;6.862;2022-12-10T04:46:51;102.03;;;36.70;;
52866;SDS011;38739;53.324;6.862;2022-12-10T04:49:16;105.25;;;37.17;;
52866;SDS011;38739;53.324;6.862;2022-12-10T04:51:42;106.88;;;37.28;;
52866;SDS011;38739;53.324;6.862;2022-12-10T04:54:08;106.25;;;37.55;;
52866;SDS011;38739;53.324;6.862;2022-12-10T04:56:34;107.50;;;37.38;;
52866;SDS011;38739;53.324;6.862;2022-12-10T04:59:01;105.53;;;39.40;;
52866;SDS011;38739;53.324;6.862;2022-12-10T05:01:28;106.93;;;37.65;;
52866;SDS011;38739;53.324;6.862;2022-12-10T05:03:54;106.07;;;36.65;;
52866;SDS011;38739;53.324;6.862;2022-12-10T05:06:23;104.93;;;38.35;;
52866;SDS011;38739;53.324;6.862;2022-12-10T05:08:48;124.28;;;40.67;;
52866;SDS011;38739;53.324;6.862;2022-12-10T05:11:18;117.15;;;39.45;;
52866;SDS011;38739;53.324;6.862;2022-12-10T05:13:45;110.88;;;40.15;;
52866;SDS011;38739;53.324;6.862;2022-12-10T05:16:12;111.35;;;39.08;;
52866;SDS011;38739;53.324;6.862;2022-12-10T05:18:43;117.90;;;39.07;;
52866;SDS011;38739;53.324;6.862;2022-12-10T05:21:12;113.82;;;40.90;;
52866;SDS011;38739;53.324;6.862;2022-12-10T05:23:41;119.97;;;40.33;;
52866;SDS011;38739;53.324;6.862;2022-12-10T05:26:13;116.85;;;40.40;;
52866;SDS011;38739;53.324;6.862;2022-12-10T05:28:48;116.80;;;39.70;;
52866;SDS011;38739;53.324;6.862;2022-12-10T05:31:17;119.28;;;39.67;;
52866;SDS011;38739;53.324;6.862;2022-12-10T05:33:54;113.78;;;38.45;;
52866;SDS011;38739;53.324;6.862;2022-12-10T05:36:22;111.60;;;39.28;;
52866;SDS011;38739;53.324;6.862;2022-12-10T05:38:49;115.32;;;39.40;;
52866;SDS011;38739;53.324;6.862;2022-12-10T05:41:21;120.90;;;40.92;;
52866;SDS011;38739;53.324;6.862;2022-12-10T05:43:48;120.63;;;40.05;;
52866;SDS011;38739;53.324;6.862;2022-12-10T05:46:32;118.80;;;40.55;;
52866;SDS011;38739;53.324;6.862;2022-12-10T05:48:59;116.40;;;39.55;;
52866;SDS011;38739;53.324;6.862;2022-12-10T05:51:27;116.78;;;39.05;;
52866;SDS011;38739;53.324;6.862;2022-12-10T05:53:54;122.25;;;40.95;;
52866;SDS011;38739;53.324;6.862;2022-12-10T05:56:23;112.63;;;40.08;;
52866;SDS011;38739;53.324;6.862;2022-12-10T05:58:50;123.88;;;41.13;;
52866;SDS011;38739;53.324;6.862;2022-12-10T06:01:20;121.90;;;41.30;;
52866;SDS011;38739;53.324;6.862;2022-12-10T06:03:48;116.47;;;40.97;;
52866;SDS011;38739;53.324;6.862;2022-12-10T06:06:19;126.88;;;43.28;;
52866;SDS011;38739;53.324;6.862;2022-12-10T06:08:53;125.38;;;41.95;;
52866;SDS011;38739;53.324;6.862;2022-12-10T06:11:19;121.43;;;42.42;;
52866;SDS011;38739;53.324;6.862;2022-12-10T06:13:45;132.27;;;42.47;;
52866;SDS011;38739;53.324;6.862;2022-12-10T06:16:11;131.30;;;42.17;;
52866;SDS011;38739;53.324;6.862;2022-12-10T06:18:38;137.63;;;44.50;;
52866;SDS011;38739;53.324;6.862;2022-12-10T06:21:08;132.52;;;42.95;;
52866;SDS011;38739;53.324;6.862;2022-12-10T06:23:36;140.55;;;43.92;;
52866;SDS011;38739;53.324;6.862;2022-12-10T06:26:03;133.23;;;44.65;;
52866;SDS011;38739;53.324;6.862;2022-12-10T06:28:40;139.88;;;46.20;;
52866;SDS011;38739;53.324;6.862;2022-12-10T06:31:06;135.20;;;43.53;;
52866;SDS011;38739;53.324;6.862;2022-12-10T06:33:32;144.93;;;44.58;;
52866;SDS011;38739;53.324;6.862;2022-12-10T06:35:58;138.63;;;44.38;;
52866;SDS011;38739;53.324;6.862;2022-12-10T06:38:24;132.77;;;43.58;;
52866;SDS011;38739;53.324;6.862;2022-12-10T06:40:50;144.32;;;45.47;;
52866;SDS011;38739;53.324;6.862;2022-12-10T06:43:16;140.23;;;44.75;;
52866;SDS011;38739;53.324;6.862;2022-12-10T06:45:42;128.95;;;44.15;;
52866;SDS011;38739;53.324;6.862;2022-12-10T06:48:08;122.13;;;43.03;;
52866;SDS011;38739;53.324;6.862;2022-12-10T06:50:34;135.93;;;44.05;;
52866;SDS011;38739;53.324;6.862;2022-12-10T06:53:00;135.13;;;44.33;;
52866;SDS011;38739;53.324;6.862;2022-12-10T06:55:27;128.93;;;43.45;;
52866;SDS011;38739;53.324;6.862;2022-12-10T06:57:53;133.23;;;45.80;;
52866;SDS011;38739;53.324;6.862;2022-12-10T07:00:19;139.25;;;44.30;;
52866;SDS011;38739;53.324;6.862;2022-12-10T07:02:45;136.10;;;46.20;;
52866;SDS011;38739;53.324;6.862;2022-12-10T07:05:11;132.10;;;43.05;;
52866;SDS011;38739;53.324;6.862;2022-12-10T07:07:37;134.23;;;45.47;;
52866;SDS011;38739;53.324;6.862;2022-12-10T07:10:04;134.65;;;44.90;;
52866;SDS011;38739;53.324;6.862;2022-12-10T07:12:30;137.45;;;45.60;;
52866;SDS011;38739;53.324;6.862;2022-12-10T07:14:55;139.35;;;47.78;;
52866;SDS011;38739;53.324;6.862;2022-12-10T07:17:21;132.57;;;45.83;;
52866;SDS011;38739;53.324;6.862;2022-12-10T07:19:47;132.98;;;44.92;;
52866;SDS011;38739;53.324;6.862;2022-12-10T07:22:12;140.27;;;45.95;;
52866;SDS011;38739;53.324;6.862;2022-12-10T07:24:38;134.75;;;45.72;;
52866;SDS011;38739;53.324;6.862;2022-12-10T07:27:05;141.23;;;47.60;;
52866;SDS011;38739;53.324;6.862;2022-12-10T07:29:31;133.02;;;46.22;;
52866;SDS011;38739;53.324;6.862;2022-12-10T07:31:57;146.98;;;47.50;;
52866;SDS011;38739;53.324;6.862;2022-12-10T07:34:22;140.85;;;48.17;;
52866;SDS011;38739;53.324;6.862;2022-12-10T07:36:48;149.55;;;49.38;;
52866;SDS011;38739;53.324;6.862;2022-12-10T07:39:14;131.63;;;46.15;;
52866;SDS011;38739;53.324;6.862;2022-12-10T07:41:51;139.82;;;47.33;;
52866;SDS011;38739;53.324;6.862;2022-12-10T07:44:22;138.80;;;47.00;;
52866;SDS011;38739;53.324;6.862;2022-12-10T07:46:50;144.52;;;49.28;;
52866;SDS011;38739;53.324;6.862;2022-12-10T07:49:16;138.13;;;47.25;;
52866;SDS011;38739;53.324;6.862;2022-12-10T07:51:49;137.68;;;46.88;;
52866;SDS011;38739;53.324;6.862;2022-12-10T07:54:16;139.88;;;45.97;;
52866;SDS011;38739;53.324;6.862;2022-12-10T07:56:42;143.40;;;47.40;;
52866;SDS011;38739;53.324;6.862;2022-12-10T07:59:08;139.68;;;47.47;;
52866;SDS011;38739;53.324;6.862;2022-12-10T08:01:33;147.02;;;48.28;;
52866;SDS011;38739;53.324;6.862;2022-12-10T08:03:59;150.50;;;48.90;;
52866;SDS011;38739;53.324;6.862;2022-12-10T08:06:26;142.50;;;47.40;;
52866;SDS011;38739;53.324;6.862;2022-12-10T08:08:53;146.63;;;47.95;;
52866;SDS011;38739;53.324;6.862;2022-12-10T08:11:19;145.10;;;46.67;;
52866;SDS011;38739;53.324;6.862;2022-12-10T08:13:46;148.38;;;47.78;;
52866;SDS011;38739;53.324;6.862;2022-12-10T08:16:14;143.18;;;46.65;;
52866;SDS011;38739;53.324;6.862;2022-12-10T08:18:42;146.68;;;46.63;;
52866;SDS011;38739;53.324;6.862;2022-12-10T08:21:10;151.38;;;47.60;;
52866;SDS011;38739;53.324;6.862;2022-12-10T08:23:38;146.93;;;48.47;;
52866;SDS011;38739;53.324;6.862;2022-12-10T08:26:05;147.57;;;48.75;;
52866;SDS011;38739;53.324;6.862;2022-12-10T08:28:32;154.75;;;49.30;;
52866;SDS011;38739;53.324;6.862;2022-12-10T08:30:58;149.55;;;47.40;;
52866;SDS011;38739;53.324;6.862;2022-12-10T08:33:24;144.52;;;46.90;;
52866;SDS011;38739;53.324;6.862;2022-12-10T08:35:50;151.77;;;49.03;;
52866;SDS011;38739;53.324;6.862;2022-12-10T08:38:15;148.43;;;48.20;;
52866;SDS011;38739;53.324;6.862;2022-12-10T08:40:41;141.00;;;47.40;;
52866;SDS011;38739;53.324;6.862;2022-12-10T08:43:07;145.27;;;48.88;;
52866;SDS011;38739;53.324;6.862;2022-12-10T08:45:33;156.43;;;49.88;;
52866;SDS011;38739;53.324;6.862;2022-12-10T08:48:00;149.00;;;49.45;;
52866;SDS011;38739;53.324;6.862;2022-12-10T08:50:27;150.93;;;49.42;;
52866;SDS011;38739;53.324;6.862;2022-12-10T08:52:53;149.80;;;47.28;;
52866;SDS011;38739;53.324;6.862;2022-12-10T08:55:19;156.50;;;50.00;;
52866;SDS011;38739;53.324;6.862;2022-12-10T08:57:44;158.18;;;50.17;;
52866;SDS011;38739;53.324;6.862;2022-12-10T09:00:10;153.68;;;49.78;;
52866;SDS011;38739;53.324;6.862;2022-12-10T09:02:38;143.32;;;47.28;;
52866;SDS011;38739;53.324;6.862;2022-12-10T09:05:04;139.70;;;46.50;;
52866;SDS011;38739;53.324;6.862;2022-12-10T09:07:30;140.50;;;48.67;;
52866;SDS011;38739;53.324;6.862;2022-12-10T09:09:56;141.90;;;47.72;;
52866;SDS011;38739;53.324;6.862;2022-12-10T09:12:22;138.20;;;46.92;;
52866;SDS011;38739;53.324;6.862;2022-12-10T09:14:48;142.77;;;47.53;;
52866;SDS011;38739;53.324;6.862;2022-12-10T09:17:14;139.40;;;45.38;;
52866;SDS011;38739;53.324;6.862;2022-12-10T09:19:39;137.60;;;46.22;;
52866;SDS011;38739;53.324;6.862;2022-12-10T09:22:05;134.95;;;45.13;;
52866;SDS011;38739;53.324;6.862;2022-12-10T09:24:31;133.60;;;44.95;;
52866;SDS011;38739;53.324;6.862;2022-12-10T09:26:56;145.85;;;46.78;;
52866;SDS011;38739;53.324;6.862;2022-12-10T09:29:22;152.35;;;47.50;;
52866;SDS011;38739;53.324;6.862;2022-12-10T09:31:51;131.65;;;44.70;;
52866;SDS011;38739;53.324;6.862;2022-12-10T09:34:17;134.05;;;44.10;;
52866;SDS011;38739;53.324;6.862;2022-12-10T09:36:43;139.98;;;47.03;;
52866;SDS011;38739;53.324;6.862;2022-12-10T09:39:10;142.82;;;45.40;;
52866;SDS011;38739;53.324;6.862;2022-12-10T09:41:51;132.23;;;44.40;;
52866;SDS011;38739;53.324;6.862;2022-12-10T09:47:03;145.13;;;46.30;;
52866;SDS011;38739;53.324;6.862;2022-12-10T09:49:45;140.55;;;45.72;;
52866;SDS011;38739;53.324;6.862;2022-12-10T09:52:18;149.95;;;46.55;;
52866;SDS011;38739;53.324;6.862;2022-12-10T09:54:50;152.98;;;47.17;;
52866;SDS011;38739;53.324;6.862;2022-12-10T09:59:56;161.20;;;49.00;;
52866;SDS011;38739;53.324;6.862;2022-12-10T10:02:28;151.32;;;47.75;;
52866;SDS011;38739;53.324;6.862;2022-12-10T10:07:34;147.82;;;46.78;;
52866;SDS011;38739;53.324;6.862;2022-12-10T10:10:18;154.77;;;46.90;;
52866;SDS011;38739;53.324;6.862;2022-12-10T10:15:38;151.13;;;46.28;;
52866;SDS011;38739;53.324;6.862;2022-12-10T10:20:58;144.55;;;46.97;;
52866;SDS011;38739;53.324;6.862;2022-12-10T10:23:25;158.15;;;46.90;;
52866;SDS011;38739;53.324;6.862;2022-12-10T10:25:51;158.77;;;48.42;;
52866;SDS011;38739;53.324;6.862;2022-12-10T10:28:18;159.23;;;49.13;;
52866;SDS011;38739;53.324;6.862;2022-12-10T10:30:45;147.00;;;47.85;;
52866;SDS011;38739;53.324;6.862;2022-12-10T10:33:12;144.52;;;46.00;;
52866;SDS011;38739;53.324;6.862;2022-12-10T10:35:49;147.32;;;47.17;;
52866;SDS011;38739;53.324;6.862;2022-12-10T10:38:21;147.07;;;46.75;;
52866;SDS011;38739;53.324;6.862;2022-12-10T10:40:52;148.98;;;46.88;;
52866;SDS011;38739;53.324;6.862;2022-12-10T10:43:31;161.30;;;51.67;;
52866;SDS011;38739;53.324;6.862;2022-12-10T10:46:43;153.02;;;48.72;;
52866;SDS011;38739;53.324;6.862;2022-12-10T10:48:47;139.98;;;47.47;;
52866;SDS011;38739;53.324;6.862;2022-12-10T10:53:45;141.00;;;47.60;;
52866;SDS011;38739;53.324;6.862;2022-12-10T10:56:26;140.85;;;46.78;;
52866;SDS011;38739;53.324;6.862;2022-12-10T11:01:53;143.50;;;47.30;;
52866;SDS011;38739;53.324;6.862;2022-12-10T11:09:24;147.23;;;46.05;;
52866;SDS011;38739;53.324;6.862;2022-12-10T11:11:58;133.85;;;44.88;;
52866;SDS011;38739;53.324;6.862;2022-12-10T11:14:44;129.45;;;44.10;;
52866;SDS011;38739;53.324;6.862;2022-12-10T11:22:41;125.85;;;44.83;;
52866;SDS011;38739;53.324;6.862;2022-12-10T11:25:19;124.28;;;44.50;;
52866;SDS011;38739;53.324;6.862;2022-12-10T11:30:31;131.50;;;43.17;;
52866;SDS011;38739;53.324;6.862;2022-12-10T11:38:46;129.20;;;44.13;;
52866;SDS011;38739;53.324;6.862;2022-12-10T11:41:21;129.52;;;44.75;;
52866;SDS011;38739;53.324;6.862;2022-12-10T11:44:14;129.23;;;44.35;;
52866;SDS011;38739;53.324;6.862;2022-12-10T11:50:13;122.90;;;44.80;;
52866;SDS011;38739;53.324;6.862;2022-12-10T12:06:45;116.70;;;42.75;;
52866;SDS011;38739;53.324;6.862;2022-12-10T12:09:52;125.75;;;43.25;;
52866;SDS011;38739;53.324;6.862;2022-12-10T12:15:19;123.45;;;43.08;;
52866;SDS011;38739;53.324;6.862;2022-12-10T12:18:18;120.68;;;42.20;;
52866;SDS011;38739;53.324;6.862;2022-12-10T12:20:57;116.05;;;41.10;;
52866;SDS011;38739;53.324;6.862;2022-12-10T12:23:30;121.10;;;41.80;;
52866;SDS011;38739;53.324;6.862;2022-12-10T12:26:29;118.15;;;42.47;;
52866;SDS011;38739;53.324;6.862;2022-12-10T12:34:55;111.30;;;40.22;;
52866;SDS011;38739;53.324;6.862;2022-12-10T12:37:32;116.47;;;42.25;;
52866;SDS011;38739;53.324;6.862;2022-12-10T12:40:43;120.03;;;42.00;;
52866;SDS011;38739;53.324;6.862;2022-12-10T12:43:13;117.72;;;42.80;;
52866;SDS011;38739;53.324;6.862;2022-12-10T12:45:51;120.13;;;42.63;;
52866;SDS011;38739;53.324;6.862;2022-12-10T12:51:22;114.07;;;41.35;;
52866;SDS011;38739;53.324;6.862;2022-12-10T12:53:51;115.47;;;42.50;;
52866;SDS011;38739;53.324;6.862;2022-12-10T12:59:26;116.72;;;42.80;;
52866;SDS011;38739;53.324;6.862;2022-12-10T13:05:21;122.93;;;42.95;;
52866;SDS011;38739;53.324;6.862;2022-12-10T13:10:50;117.15;;;42.58;;
52866;SDS011;38739;53.324;6.862;2022-12-10T13:49:16;134.60;;;41.63;;
52866;SDS011;38739;53.324;6.862;2022-12-10T13:51:52;142.65;;;44.97;;
52866;SDS011;38739;53.324;6.862;2022-12-10T14:08:35;124.07;;;38.97;;
52866;SDS011;38739;53.324;6.862;2022-12-10T14:11:04;130.07;;;40.60;;
52866;SDS011;38739;53.324;6.862;2022-12-10T14:13:43;134.45;;;42.85;;
52866;SDS011;38739;53.324;6.862;2022-12-10T14:16:15;136.80;;;42.05;;
52866;SDS011;38739;53.324;6.862;2022-12-10T14:18:45;123.13;;;40.28;;
52866;SDS011;38739;53.324;6.862;2022-12-10T14:21:20;119.03;;;39.08;;
52866;SDS011;38739;53.324;6.862;2022-12-10T14:23:47;121.30;;;39.45;;
52866;SDS011;38739;53.324;6.862;2022-12-10T14:28:53;110.53;;;38.15;;
52866;SDS011;38739;53.324;6.862;2022-12-10T14:31:25;105.68;;;35.30;;
52866;SDS011;38739;53.324;6.862;2022-12-10T14:33:55;93.43;;;34.70;;
52866;SDS011;38739;53.324;6.862;2022-12-10T14:36:27;118.35;;;37.90;;
52866;SDS011;38739;53.324;6.862;2022-12-10T14:39:10;188.10;;;36.85;;
52866;SDS011;38739;53.324;6.862;2022-12-10T14:41:39;122.57;;;35.60;;
52866;SDS011;38739;53.324;6.862;2022-12-10T14:44:05;120.78;;;34.33;;
52866;SDS011;38739;53.324;6.862;2022-12-10T14:46:31;159.20;;;35.53;;
52866;SDS011;38739;53.324;6.862;2022-12-10T14:48:57;201.20;;;37.03;;
52866;SDS011;38739;53.324;6.862;2022-12-10T14:51:24;147.25;;;37.05;;
52866;SDS011;38739;53.324;6.862;2022-12-10T14:53:52;108.10;;;33.40;;
52866;SDS011;38739;53.324;6.862;2022-12-10T14:56:20;160.00;;;35.92;;
52866;SDS011;38739;53.324;6.862;2022-12-10T14:58:50;133.57;;;34.28;;
52866;SDS011;38739;53.324;6.862;2022-12-10T15:01:33;193.95;;;34.80;;
52866;SDS011;38739;53.324;6.862;2022-12-10T15:04:01;147.10;;;34.17;;
52866;SDS011;38739;53.324;6.862;2022-12-10T15:06:31;148.50;;;34.60;;
52866;SDS011;38739;53.324;6.862;2022-12-10T15:09:00;115.13;;;30.83;;
52866;SDS011;38739;53.324;6.862;2022-12-10T15:11:26;143.20;;;34.10;;
52866;SDS011;38739;53.324;6.862;2022-12-10T15:13:54;99.53;;;30.20;;
52866;SDS011;38739;53.324;6.862;2022-12-10T15:16:28;138.00;;;33.33;;
52866;SDS011;38739;53.324;6.862;2022-12-10T15:19:17;183.48;;;32.80;;
52866;SDS011;38739;53.324;6.862;2022-12-10T15:21:45;119.65;;;33.08;;
52866;SDS011;38739;53.324;6.862;2022-12-10T15:24:14;194.10;;;34.72;;
52866;SDS011;38739;53.324;6.862;2022-12-10T15:26:50;198.85;;;35.78;;
52866;SDS011;38739;53.324;6.862;2022-12-10T15:32:33;105.53;;;32.58;;
52866;SDS011;38739;53.324;6.862;2022-12-10T15:37:19;109.15;;;30.50;;
52866;SDS011;38739;53.324;6.862;2022-12-10T15:39:56;183.93;;;37.47;;
52866;SDS011;38739;53.324;6.862;2022-12-10T15:42:41;166.30;;;37.85;;
52866;SDS011;38739;53.324;6.862;2022-12-10T15:45:28;185.85;;;38.20;;
52866;SDS011;38739;53.324;6.862;2022-12-10T15:48:06;137.10;;;33.50;;
52866;SDS011;38739;53.324;6.862;2022-12-10T15:50:34;138.10;;;33.63;;
52866;SDS011;38739;53.324;6.862;2022-12-10T15:52:59;167.13;;;37.13;;
52866;SDS011;38739;53.324;6.862;2022-12-10T15:55:25;158.57;;;36.67;;
52866;SDS011;38739;53.324;6.862;2022-12-10T15:57:51;118.00;;;34.33;;
52866;SDS011;38739;53.324;6.862;2022-12-10T16:00:19;160.68;;;35.15;;
52866;SDS011;38739;53.324;6.862;2022-12-10T16:02:58;155.55;;;39.03;;
52866;SDS011;38739;53.324;6.862;2022-12-10T16:05:32;148.73;;;35.10;;
52866;SDS011;38739;53.324;6.862;2022-12-10T16:08:09;163.20;;;34.55;;
52866;SDS011;38739;53.324;6.862;2022-12-10T16:10:50;134.65;;;34.22;;
52866;SDS011;38739;53.324;6.862;2022-12-10T16:13:30;163.30;;;38.85;;
52866;SDS011;38739;53.324;6.862;2022-12-10T16:16:00;116.72;;;33.08;;
52866;SDS011;38739;53.324;6.862;2022-12-10T16:18:32;172.45;;;35.30;;
52866;SDS011;38739;53.324;6.862;2022-12-10T16:20:57;105.57;;;32.33;;
52866;SDS011;38739;53.324;6.862;2022-12-10T16:23:23;117.63;;;32.78;;
52866;SDS011;38739;53.324;6.862;2022-12-10T16:25:49;157.45;;;33.88;;
52866;SDS011;38739;53.324;6.862;2022-12-10T16:28:19;132.80;;;33.65;;
52866;SDS011;38739;53.324;6.862;2022-12-10T16:30:49;132.90;;;34.88;;
52866;SDS011;38739;53.324;6.862;2022-12-10T16:33:23;116.13;;;30.88;;
52866;SDS011;38739;53.324;6.862;2022-12-10T16:35:50;107.82;;;31.48;;
52866;SDS011;38739;53.324;6.862;2022-12-10T16:38:17;123.25;;;33.30;;
52866;SDS011;38739;53.324;6.862;2022-12-10T16:40:44;108.10;;;33.38;;
52866;SDS011;38739;53.324;6.862;2022-12-10T16:43:12;106.68;;;33.03;;
52866;SDS011;38739;53.324;6.862;2022-12-10T16:45:41;124.43;;;33.65;;
52866;SDS011;38739;53.324;6.862;2022-12-10T16:48:07;114.45;;;33.15;;
52866;SDS011;38739;53.324;6.862;2022-12-10T16:50:33;142.45;;;37.38;;
52866;SDS011;38739;53.324;6.862;2022-12-10T16:53:02;147.50;;;37.35;;
52866;SDS011;38739;53.324;6.862;2022-12-10T16:55:36;127.20;;;35.10;;
52866;SDS011;38739;53.324;6.862;2022-12-10T16:58:02;140.00;;;36.97;;
52866;SDS011;38739;53.324;6.862;2022-12-10T17:00:27;161.60;;;40.60;;
52866;SDS011;38739;53.324;6.862;2022-12-10T17:02:53;145.38;;;39.75;;